Time;durP1;ratioP1;P1;durP2;ratioP2;P2;SDS_P1;SDS_P2;PMS_P1;PMS_P2;Temp;Humidity;BMP_temperature;BMP_pressure;BME280_temperature;BME280_humidity;BME280_pressure;Samples;Min_cycle;Max_cycle;Signal;HPM_P1;HPM_P2
2024/01/03 00:00:28;;;;;;;2.10;0.90;;;;;10.00;96582.00;;;;5074544;28;20045;-65
2024/01/03 00:02:55;;;;;;;3.25;0.80;;;;;10.00;96576.00;;;;5074562;28;20137;-65
2024/01/03 00:05:24;;;;;;;1.85;1.05;;;;;10.00;96560.00;;;;5073875;28;20086;-65
2024/01/03 00:07:51;;;;;;;3.08;1.17;;;;;9.90;96575.00;;;;5074459;28;20115;-65
2024/01/03 00:10:46;;;;;;;2.33;0.90;;;;;9.90;96577.00;;;;5074310;28;20044;-65
2024/01/03 00:13:38;;;;;;;1.30;0.75;;;;;10.00;96583.00;;;;5074417;28;20048;-65
2024/01/03 00:16:05;;;;;;;1.17;0.80;;;;;10.00;96591.00;;;;5074415;28;20049;-65
2024/01/03 00:18:45;;;;;;;0.82;0.60;;;;;10.00;96591.00;;;;5073007;28;20040;-63
2024/01/03 00:21:18;;;;;;;2.05;1.00;;;;;10.00;96570.00;;;;5074104;28;20040;-65
2024/01/03 00:23:55;;;;;;;2.83;1.20;;;;;10.00;96583.00;;;;5072271;28;20072;-65
2024/01/03 00:26:24;;;;;;;1.13;0.98;;;;;10.00;96582.00;;;;5072806;28;20054;-65
2024/01/03 00:28:51;;;;;;;3.08;1.05;;;;;10.00;96571.00;;;;5073948;28;20072;-65
2024/01/03 00:31:36;;;;;;;2.67;1.05;;;;;10.00;96558.00;;;;5074109;28;20048;-65
2024/01/03 00:34:11;;;;;;;4.65;1.10;;;;;10.00;96570.00;;;;5073366;28;20124;-65
2024/01/03 00:36:38;;;;;;;1.17;0.80;;;;;10.00;96582.00;;;;5073111;28;20052;-63
2024/01/03 00:39:06;;;;;;;3.50;1.00;;;;;9.90;96559.00;;;;5072637;28;20075;-64
2024/01/03 00:41:33;;;;;;;5.15;1.15;;;;;9.90;96561.00;;;;5072611;28;20593;-64
2024/01/03 00:43:59;;;;;;;4.68;1.02;;;;;10.00;96578.00;;;;5073329;28;20040;-65
2024/01/03 00:46:26;;;;;;;5.03;1.10;;;;;10.00;96557.00;;;;5073675;28;20486;-65
2024/01/03 00:48:52;;;;;;;6.90;1.23;;;;;10.00;96550.00;;;;5072176;28;20474;-64
2024/01/03 00:51:19;;;;;;;5.57;1.30;;;;;10.00;96541.00;;;;5072337;28;20052;-65
2024/01/03 00:53:46;;;;;;;5.68;1.52;;;;;10.10;96578.00;;;;5072780;28;20040;-65
2024/01/03 00:56:12;;;;;;;4.13;1.30;;;;;10.10;96581.00;;;;5073456;28;20064;-65
2024/01/03 00:58:43;;;;;;;6.68;1.60;;;;;10.10;96595.00;;;;5072013;28;20147;-64
2024/01/03 01:01:10;;;;;;;10.05;1.70;;;;;10.10;96588.00;;;;5073419;28;20055;-65
2024/01/03 01:03:36;;;;;;;4.65;1.50;;;;;10.10;96596.00;;;;5071557;28;20501;-65
2024/01/03 01:06:03;;;;;;;7.60;1.38;;;;;10.20;96586.00;;;;5073334;28;20505;-63
2024/01/03 01:08:30;;;;;;;8.55;1.98;;;;;10.30;96577.00;;;;5073273;28;20040;-65
2024/01/03 01:10:57;;;;;;;3.90;1.33;;;;;10.30;96603.00;;;;5071824;28;20076;-65
2024/01/03 01:13:24;;;;;;;4.30;1.75;;;;;10.30;96592.00;;;;5072584;28;20094;-62
2024/01/03 01:15:50;;;;;;;7.15;1.45;;;;;10.30;96598.00;;;;5071723;28;20049;-65
2024/01/03 01:18:18;;;;;;;4.50;1.10;;;;;10.30;96595.00;;;;5072991;28;20086;-64
2024/01/03 01:20:45;;;;;;;3.90;0.85;;;;;10.30;96598.00;;;;5071808;28;20059;-65
2024/01/03 01:23:11;;;;;;;3.58;0.90;;;;;10.20;96595.00;;;;5072975;28;20127;-64
2024/01/03 01:25:38;;;;;;;1.13;0.75;;;;;10.20;96597.00;;;;5070809;28;20440;-65
2024/01/03 01:28:05;;;;;;;3.10;0.90;;;;;10.10;96605.00;;;;5072754;28;20044;-65
2024/01/03 01:30:32;;;;;;;3.88;1.17;;;;;10.10;96609.00;;;;5071475;28;20044;-65
2024/01/03 01:32:58;;;;;;;5.18;1.33;;;;;10.00;96615.00;;;;5071476;28;20473;-65
2024/01/03 01:35:25;;;;;;;3.47;1.15;;;;;10.00;96614.00;;;;5070789;28;20666;-65
2024/01/03 01:37:52;;;;;;;3.75;1.23;;;;;10.00;96633.00;;;;5071318;28;20048;-64
2024/01/03 01:40:19;;;;;;;7.63;1.35;;;;;10.00;96625.00;;;;5071428;28;20052;-65
2024/01/03 01:42:46;;;;;;;4.57;1.30;;;;;10.00;96625.00;;;;5071414;28;20036;-65
2024/01/03 01:45:13;;;;;;;4.70;1.30;;;;;10.10;96615.00;;;;5071952;28;20447;-65
2024/01/03 01:47:42;;;;;;;7.85;1.67;;;;;10.10;96625.00;;;;5071692;28;20064;-64
2024/01/03 01:50:10;;;;;;;7.80;1.70;;;;;10.20;96627.00;;;;5071142;28;20048;-65
2024/01/03 01:52:39;;;;;;;9.77;2.00;;;;;10.20;96620.00;;;;5071457;28;20047;-64
2024/01/03 01:55:06;;;;;;;7.47;1.60;;;;;10.20;96626.00;;;;5071697;28;20095;-65
2024/01/03 01:57:35;;;;;;;11.48;1.85;;;;;10.30;96631.00;;;;5072338;28;20044;-65
2024/01/03 02:00:02;;;;;;;11.13;2.05;;;;;10.30;96624.00;;;;5071012;28;20148;-65
2024/01/03 02:02:39;;;;;;;4.00;1.50;;;;;10.20;96620.00;;;;5072267;28;20722;-65
2024/01/03 02:05:07;;;;;;;4.32;1.60;;;;;10.20;96613.00;;;;5071708;28;20044;-65
2024/01/03 02:07:34;;;;;;;5.60;1.60;;;;;10.20;96603.00;;;;5070926;28;20044;-65
2024/01/03 02:10:02;;;;;;;9.40;2.47;;;;;10.20;96607.00;;;;5070896;28;20056;-65
2024/01/03 02:12:29;;;;;;;9.73;1.75;;;;;10.20;96599.00;;;;5070853;28;20080;-64
2024/01/03 02:14:56;;;;;;;5.72;1.60;;;;;10.30;96621.00;;;;5070113;28;20492;-65
2024/01/03 02:17:23;;;;;;;13.13;1.80;;;;;10.30;96649.00;;;;5070600;28;20048;-65
2024/01/03 02:19:50;;;;;;;6.32;1.75;;;;;10.20;96664.00;;;;5070650;28;20117;-65
2024/01/03 02:22:17;;;;;;;4.70;1.10;;;;;9.90;96658.00;;;;5072035;28;20064;-65
2024/01/03 02:24:44;;;;;;;4.82;1.00;;;;;9.60;96663.00;;;;5069857;28;20143;-65
2024/01/03 02:27:11;;;;;;;0.77;0.63;;;;;9.40;96658.00;;;;5071837;28;20051;-64
2024/01/03 02:29:38;;;;;;;2.13;0.73;;;;;9.30;96659.00;;;;5071949;28;20056;-64
2024/01/03 02:32:05;;;;;;;1.88;0.82;;;;;9.20;96663.00;;;;5072012;28;20119;-65
2024/01/03 02:34:31;;;;;;;1.63;1.00;;;;;9.10;96666.00;;;;5071147;28;20045;-64
2024/01/03 02:36:58;;;;;;;1.42;0.60;;;;;9.00;96670.00;;;;5071913;28;20044;-65
2024/01/03 02:39:25;;;;;;;1.08;0.73;;;;;8.90;96672.00;;;;5071800;28;20045;-65
2024/01/03 02:41:51;;;;;;;2.72;0.70;;;;;8.90;96666.00;;;;5071874;28;20043;-63
2024/01/03 02:44:20;;;;;;;1.60;0.70;;;;;8.80;96646.00;;;;5071195;28;20048;-64
2024/01/03 02:46:47;;;;;;;4.45;0.70;;;;;8.80;96646.00;;;;5070671;28;20040;-65
2024/01/03 02:49:13;;;;;;;3.70;1.42;;;;;8.70;96641.00;;;;5071725;28;20045;-65
2024/01/03 02:51:40;;;;;;;1.75;0.65;;;;;8.70;96650.00;;;;5071777;28;20041;-65
2024/01/03 02:54:07;;;;;;;3.33;0.80;;;;;8.70;96645.00;;;;5069896;28;20412;-64
2024/01/03 02:56:40;;;;;;;4.15;0.70;;;;;8.70;96645.00;;;;5071969;28;20501;-64
2024/01/03 02:59:06;;;;;;;5.60;1.02;;;;;8.70;96644.00;;;;5074787;28;20531;-65
2024/01/03 03:01:34;;;;;;;3.95;1.23;;;;;8.80;96640.00;;;;5075788;28;20469;-65
2024/01/03 03:04:00;;;;;;;5.78;1.67;;;;;8.90;96638.00;;;;5075140;28;20040;-63
2024/01/03 03:06:27;;;;;;;6.45;1.52;;;;;9.00;96648.00;;;;5074167;28;20044;-65
2024/01/03 03:08:53;;;;;;;6.70;1.60;;;;;9.10;96643.00;;;;5074439;28;20048;-65
2024/01/03 03:11:38;;;;;;;9.85;1.70;;;;;9.20;96632.00;;;;5074276;28;20136;-65
2024/01/03 03:14:05;;;;;;;5.78;1.48;;;;;9.30;96643.00;;;;5074835;28;20040;-64
2024/01/03 03:16:31;;;;;;;6.20;1.48;;;;;9.40;96644.00;;;;5074233;28;20044;-65
2024/01/03 03:18:58;;;;;;;6.88;2.03;;;;;9.50;96635.00;;;;5075384;28;20043;-65
2024/01/03 03:21:24;;;;;;;9.02;1.70;;;;;9.60;96637.00;;;;5075377;28;20052;-63
2024/01/03 03:23:51;;;;;;;9.10;1.65;;;;;9.70;96639.00;;;;5074532;28;20048;-65
2024/01/03 03:26:17;;;;;;;8.13;1.80;;;;;9.80;96643.00;;;;5075228;28;20482;-64
2024/01/03 03:28:44;;;;;;;6.50;1.60;;;;;9.80;96643.00;;;;5075057;28;20082;-65
2024/01/03 03:31:11;;;;;;;8.20;1.90;;;;;9.80;96635.00;;;;5073975;28;20045;-65
2024/01/03 03:33:38;;;;;;;6.40;1.65;;;;;9.90;96637.00;;;;5074533;28;20068;-64
2024/01/03 03:36:12;;;;;;;6.45;1.58;;;;;9.90;96645.00;;;;5075042;28;20601;-65
2024/01/03 03:38:40;;;;;;;6.25;1.95;;;;;10.00;96643.00;;;;5074912;28;20079;-65
2024/01/03 03:41:10;;;;;;;7.15;1.60;;;;;10.00;96643.00;;;;5074895;28;20044;-65
2024/01/03 03:43:39;;;;;;;5.97;1.63;;;;;10.00;96640.00;;;;5074443;28;20456;-65
2024/01/03 03:46:06;;;;;;;6.10;1.55;;;;;10.00;96642.00;;;;5074984;28;20075;-65
2024/01/03 03:48:33;;;;;;;10.20;2.05;;;;;10.10;96645.00;;;;5074730;28;20044;-65
2024/01/03 03:51:01;;;;;;;7.10;1.67;;;;;10.10;96628.00;;;;5074807;28;20044;-65
2024/01/03 03:53:27;;;;;;;7.60;1.88;;;;;10.10;96638.00;;;;5074070;28;20046;-65
2024/01/03 03:55:54;;;;;;;8.05;1.40;;;;;10.10;96648.00;;;;5074523;28;20064;-65
2024/01/03 03:58:20;;;;;;;8.10;2.30;;;;;10.10;96631.00;;;;5074563;28;20127;-65
2024/01/03 04:00:47;;;;;;;12.20;2.35;;;;;10.10;96642.00;;;;5074702;28;20050;-65
2024/01/03 04:03:14;;;;;;;11.30;2.60;;;;;10.10;96635.00;;;;5074493;28;20037;-63
2024/01/03 04:05:40;;;;;;;11.77;2.72;;;;;10.10;96637.00;;;;5074143;28;20044;-65
2024/01/03 04:08:07;;;;;;;8.63;2.35;;;;;10.10;96646.00;;;;5074284;28;20041;-65
2024/01/03 04:10:35;;;;;;;8.43;2.30;;;;;10.10;96659.00;;;;5072224;28;20098;-65
2024/01/03 04:13:04;;;;;;;12.35;2.75;;;;;10.10;96657.00;;;;5074375;28;20040;-65
2024/01/03 04:15:30;;;;;;;8.77;1.92;;;;;10.10;96661.00;;;;5073648;28;20041;-64
2024/01/03 04:17:57;;;;;;;6.50;1.48;;;;;10.10;96653.00;;;;5072951;28;20047;-65
2024/01/03 04:20:24;;;;;;;9.27;2.13;;;;;10.10;96649.00;;;;5074204;28;20044;-65
2024/01/03 04:22:50;;;;;;;7.53;2.10;;;;;10.10;96641.00;;;;5074012;28;20048;-65
2024/01/03 04:25:17;;;;;;;10.20;2.22;;;;;10.10;96650.00;;;;5073377;28;20486;-65
2024/01/03 04:27:44;;;;;;;7.85;1.85;;;;;10.10;96666.00;;;;5074075;28;20490;-65
2024/01/03 04:30:10;;;;;;;10.32;2.25;;;;;10.10;96669.00;;;;5074069;28;20047;-65
2024/01/03 04:32:37;;;;;;;8.30;1.92;;;;;10.20;96664.00;;;;5074032;28;20040;-65
2024/01/03 04:35:05;;;;;;;9.82;2.10;;;;;10.20;96661.00;;;;5073317;28;20041;-65
2024/01/03 04:37:33;;;;;;;14.90;2.35;;;;;10.20;96660.00;;;;5073713;28;20045;-65
2024/01/03 04:39:59;;;;;;;12.80;2.75;;;;;10.20;96670.00;;;;5073870;28;20071;-65
2024/01/03 04:42:26;;;;;;;10.18;2.30;;;;;10.20;96677.00;;;;5073883;28;20044;-65
2024/01/03 04:44:53;;;;;;;5.03;2.00;;;;;10.20;96668.00;;;;5073185;28;20044;-64
2024/01/03 04:47:20;;;;;;;11.60;2.30;;;;;10.10;96675.00;;;;5073557;28;20512;-65
2024/01/03 04:49:47;;;;;;;8.57;2.80;;;;;10.10;96675.00;;;;5073621;28;20044;-65
2024/01/03 04:52:14;;;;;;;13.30;2.22;;;;;10.10;96658.00;;;;5073640;28;20044;-65
2024/01/03 04:54:40;;;;;;;10.25;2.33;;;;;10.10;96648.00;;;;5071756;28;20386;-65
2024/01/03 04:57:07;;;;;;;8.82;3.35;;;;;10.10;96671.00;;;;5073524;28;20049;-65
2024/01/03 04:59:33;;;;;;;7.43;1.90;;;;;10.10;96674.00;;;;5073492;28;20481;-65
2024/01/03 05:02:00;;;;;;;8.27;1.90;;;;;10.00;96680.00;;;;5073421;28;20055;-65
2024/01/03 05:04:27;;;;;;;9.32;1.90;;;;;10.00;96663.00;;;;5071559;28;20040;-63
2024/01/03 05:06:53;;;;;;;11.65;2.40;;;;;10.00;96669.00;;;;5073332;28;20033;-63
2024/01/03 05:09:20;;;;;;;11.07;2.65;;;;;10.00;96666.00;;;;5073339;28;20054;-63
2024/01/03 05:11:47;;;;;;;9.80;2.40;;;;;10.00;96664.00;;;;5073273;28;20054;-64
2024/01/03 05:14:13;;;;;;;11.38;2.30;;;;;10.00;96664.00;;;;5072592;28;20115;-64
2024/01/03 05:16:41;;;;;;;5.93;1.70;;;;;10.00;96681.00;;;;5073013;28;20043;-62
2024/01/03 05:19:08;;;;;;;7.63;2.35;;;;;10.00;96663.00;;;;5073148;28;20119;-64
2024/01/03 05:21:35;;;;;;;5.13;2.00;;;;;10.10;96652.00;;;;5073001;28;20041;-64
2024/01/03 05:24:01;;;;;;;13.07;2.85;;;;;10.00;96666.00;;;;5072350;28;20048;-63
2024/01/03 05:26:28;;;;;;;8.30;1.95;;;;;10.00;96670.00;;;;5071773;28;20041;-63
2024/01/03 05:28:55;;;;;;;12.85;2.60;;;;;9.90;96665.00;;;;5072937;28;20048;-64
2024/01/03 05:31:23;;;;;;;10.48;1.85;;;;;10.00;96683.00;;;;5072892;28;20049;-65
2024/01/03 05:33:50;;;;;;;6.60;2.80;;;;;10.00;96679.00;;;;5072657;28;20046;-64
2024/01/03 05:36:17;;;;;;;12.23;3.25;;;;;10.00;96691.00;;;;5072548;28;20041;-65
2024/01/03 05:38:43;;;;;;;7.30;1.88;;;;;10.00;96676.00;;;;5072635;28;20047;-64
2024/01/03 05:41:11;;;;;;;10.13;2.47;;;;;10.00;96681.00;;;;5072634;28;20101;-65
2024/01/03 05:43:37;;;;;;;10.98;2.20;;;;;10.10;96684.00;;;;5071999;28;20064;-65
2024/01/03 05:46:04;;;;;;;8.65;1.98;;;;;10.10;96684.00;;;;5072563;28;20072;-65
2024/01/03 05:48:30;;;;;;;14.82;2.70;;;;;10.10;96672.00;;;;5072528;28;20052;-65
2024/01/03 05:50:57;;;;;;;10.45;2.20;;;;;10.10;96682.00;;;;5072446;28;20041;-64
2024/01/03 05:53:24;;;;;;;9.57;2.03;;;;;10.10;96683.00;;;;5071955;28;20078;-61
2024/01/03 05:55:50;;;;;;;11.23;2.20;;;;;10.10;96693.00;;;;5072509;28;20378;-65
2024/01/03 05:58:17;;;;;;;5.85;1.42;;;;;10.00;96679.00;;;;5072324;28;20047;-64
2024/01/03 06:00:43;;;;;;;5.78;1.75;;;;;10.00;96688.00;;;;5072283;28;20053;-64
2024/01/03 06:03:10;;;;;;;13.13;1.95;;;;;10.00;96672.00;;;;5072168;28;20052;-65
2024/01/03 06:05:37;;;;;;;6.82;1.80;;;;;10.00;96674.00;;;;5071902;28;20458;-65
2024/01/03 06:08:04;;;;;;;6.15;1.70;;;;;10.00;96682.00;;;;5071015;28;20048;-64
2024/01/03 06:10:31;;;;;;;6.13;1.67;;;;;10.00;96682.00;;;;5054359;28;20048;-65
2024/01/03 06:12:57;;;;;;;6.22;1.73;;;;;10.00;96690.00;;;;5072197;28;20072;-63
2024/01/03 06:15:24;;;;;;;9.23;1.80;;;;;10.00;96693.00;;;;5071339;28;20074;-64
2024/01/03 06:17:51;;;;;;;7.68;1.52;;;;;10.00;96672.00;;;;5072006;28;20408;-65
2024/01/03 06:20:18;;;;;;;7.57;1.85;;;;;10.00;96676.00;;;;5070883;28;20048;-65
2024/01/03 06:22:48;;;;;;;6.13;1.42;;;;;10.00;96684.00;;;;5072128;28;20048;-65
2024/01/03 06:25:15;;;;;;;8.75;1.70;;;;;10.00;96678.00;;;;5071289;28;20044;-65
2024/01/03 06:27:41;;;;;;;9.43;1.92;;;;;10.00;96671.00;;;;5071939;28;20123;-64
2024/01/03 06:30:08;;;;;;;8.25;1.70;;;;;10.10;96676.00;;;;5072101;28;20045;-63
2024/01/03 06:32:35;;;;;;;4.63;1.45;;;;;10.00;96675.00;;;;5071822;28;20048;-65
2024/01/03 06:35:02;;;;;;;5.32;1.73;;;;;10.10;96685.00;;;;5071235;28;20114;-65
2024/01/03 06:37:29;;;;;;;5.68;1.60;;;;;10.10;96680.00;;;;5072067;28;20400;-64
2024/01/03 06:39:55;;;;;;;5.15;1.40;;;;;10.10;96680.00;;;;5072190;28;20046;-64
2024/01/03 06:42:22;;;;;;;7.72;2.20;;;;;10.00;96661.00;;;;5072203;28;20048;-65
2024/01/03 06:44:49;;;;;;;10.60;2.00;;;;;10.10;96663.00;;;;5071472;28;20082;-65
2024/01/03 06:47:15;;;;;;;5.10;1.10;;;;;10.10;96663.00;;;;5071585;28;20066;-64
2024/01/03 06:49:42;;;;;;;7.85;1.45;;;;;10.10;96643.00;;;;5071754;28;20131;-65
2024/01/03 06:52:08;;;;;;;6.88;1.30;;;;;10.10;96650.00;;;;5071782;28;20509;-65
2024/01/03 06:54:35;;;;;;;5.50;1.50;;;;;10.10;96648.00;;;;5071173;28;20045;-64
2024/01/03 06:57:03;;;;;;;6.50;1.60;;;;;10.10;96653.00;;;;5072080;28;20066;-65
2024/01/03 06:59:37;;;;;;;3.90;1.10;;;;;10.10;96666.00;;;;5070728;28;20076;-61
2024/01/03 07:02:03;;;;;;;6.70;1.20;;;;;10.10;96656.00;;;;5071675;28;20044;-62
2024/01/03 07:04:30;;;;;;;6.22;1.10;;;;;10.10;96661.00;;;;5070905;28;20135;-60
2024/01/03 07:06:57;;;;;;;4.40;1.25;;;;;10.10;96661.00;;;;5071553;28;20058;-62
2024/01/03 07:09:24;;;;;;;3.63;1.40;;;;;10.10;96667.00;;;;5071458;28;20076;-62
2024/01/03 07:11:50;;;;;;;5.88;1.75;;;;;10.10;96672.00;;;;5071511;28;20091;-61
2024/01/03 07:14:17;;;;;;;4.13;1.20;;;;;10.10;96662.00;;;;5070863;28;20439;-64
2024/01/03 07:16:44;;;;;;;6.10;1.50;;;;;10.10;96668.00;;;;5071361;28;20092;-62
2024/01/03 07:19:14;;;;;;;4.00;1.50;;;;;10.10;96673.00;;;;5070224;28;20087;-62
2024/01/03 07:21:41;;;;;;;4.18;1.42;;;;;10.10;96674.00;;;;5071645;28;20395;-62
2024/01/03 07:24:07;;;;;;;5.00;1.70;;;;;10.10;96694.00;;;;5070611;28;20040;-64
2024/01/03 07:26:35;;;;;;;3.65;1.38;;;;;10.10;96687.00;;;;5071548;28;20044;-62
2024/01/03 07:29:01;;;;;;;6.30;1.85;;;;;10.10;96697.00;;;;5071537;28;20049;-62
2024/01/03 07:31:28;;;;;;;6.20;1.80;;;;;10.10;96687.00;;;;5071498;28;20072;-62
2024/01/03 07:33:55;;;;;;;7.32;1.52;;;;;10.00;96682.00;;;;5069412;28;20592;-62
2024/01/03 07:36:21;;;;;;;10.05;2.55;;;;;10.10;96686.00;;;;5071385;28;20037;-62
2024/01/03 07:38:48;;;;;;;2.28;1.20;;;;;10.00;96676.00;;;;5069889;28;20454;-62
2024/01/03 07:41:19;;;;;;;6.82;1.65;;;;;10.10;96667.00;;;;5071237;28;20052;-62
2024/01/03 07:43:46;;;;;;;5.10;1.70;;;;;10.10;96668.00;;;;5070770;28;20048;-62
2024/01/03 07:46:17;;;;;;;8.55;1.58;;;;;10.10;96658.00;;;;5073884;28;20578;-62
2024/01/03 07:48:44;;;;;;;4.32;1.42;;;;;10.20;96646.00;;;;5074767;28;20048;-62
2024/01/03 07:51:11;;;;;;;4.20;0.90;;;;;10.20;96645.00;;;;5074674;28;20528;-64
2024/01/03 07:53:38;;;;;;;5.18;1.45;;;;;10.20;96650.00;;;;5074225;28;20050;-64
2024/01/03 07:56:08;;;;;;;3.75;1.23;;;;;10.20;96657.00;;;;5074668;28;20048;-64
2024/01/03 07:58:35;;;;;;;5.15;1.40;;;;;10.20;96672.00;;;;5074773;28;20041;-64
2024/01/03 08:01:02;;;;;;;6.57;1.20;;;;;10.20;96659.00;;;;5074549;28;20052;-64
2024/01/03 08:03:28;;;;;;;4.80;1.75;;;;;10.20;96669.00;;;;5073862;28;20048;-64
2024/01/03 08:05:55;;;;;;;3.95;1.30;;;;;10.20;96677.00;;;;5074164;28;20040;-64
2024/01/03 08:08:22;;;;;;;1.33;0.98;;;;;10.20;96666.00;;;;5074547;28;20041;-64
2024/01/03 08:10:48;;;;;;;2.13;1.00;;;;;10.20;96664.00;;;;5074413;28;20732;-65
2024/01/03 08:13:15;;;;;;;2.70;0.90;;;;;10.20;96686.00;;;;5073432;28;20467;-64
2024/01/03 08:15:42;;;;;;;2.95;1.10;;;;;10.10;96661.00;;;;5073888;28;20076;-64
2024/01/03 08:18:08;;;;;;;2.42;0.90;;;;;10.00;96638.00;;;;5074208;28;20037;-64
2024/01/03 08:20:36;;;;;;;3.83;1.40;;;;;10.00;96647.00;;;;5074357;28;20036;-64
2024/01/03 08:23:03;;;;;;;4.63;1.48;;;;;10.10;96652.00;;;;5074508;28;20044;-65
2024/01/03 08:25:29;;;;;;;3.78;1.30;;;;;10.10;96689.00;;;;5073550;28;20045;-64
2024/01/03 08:27:56;;;;;;;2.85;0.93;;;;;10.10;96682.00;;;;5074255;28;20555;-65
2024/01/03 08:30:22;;;;;;;3.85;1.42;;;;;10.10;96681.00;;;;5074321;28;20455;-65
2024/01/03 08:32:49;;;;;;;5.30;1.67;;;;;10.10;96681.00;;;;5073977;28;20044;-65
2024/01/03 08:35:16;;;;;;;2.15;1.40;;;;;10.10;96687.00;;;;5072235;28;20041;-64
2024/01/03 08:37:43;;;;;;;3.72;1.42;;;;;10.10;96684.00;;;;5073866;28;20044;-65
2024/01/03 08:40:10;;;;;;;5.25;1.40;;;;;10.10;96691.00;;;;5072706;28;20512;-65
2024/01/03 08:42:36;;;;;;;5.78;1.42;;;;;10.10;96675.00;;;;5074109;28;20115;-65
2024/01/03 08:45:03;;;;;;;3.83;1.30;;;;;10.20;96683.00;;;;5072162;28;20086;-65
2024/01/03 08:47:30;;;;;;;5.35;1.67;;;;;10.20;96691.00;;;;5073670;28;20045;-63
2024/01/03 08:49:57;;;;;;;8.15;2.00;;;;;10.20;96710.00;;;;5072652;28;20410;-62
2024/01/03 08:52:23;;;;;;;7.60;1.80;;;;;10.30;96715.00;;;;5074005;28;20412;-61
2024/01/03 08:54:50;;;;;;;9.60;1.67;;;;;10.30;96706.00;;;;5072002;28;20466;-64
2024/01/03 08:57:16;;;;;;;4.30;1.40;;;;;10.40;96724.00;;;;5073356;28;20041;-63
2024/01/03 08:59:43;;;;;;;4.70;1.42;;;;;10.30;96684.00;;;;5073631;28;20119;-62
2024/01/03 09:02:10;;;;;;;3.88;1.25;;;;;10.30;96689.00;;;;5073593;28;20044;-62
2024/01/03 09:04:37;;;;;;;5.00;1.35;;;;;10.30;96705.00;;;;5072379;28;20072;-62
2024/01/03 09:07:03;;;;;;;6.63;1.38;;;;;10.30;96699.00;;;;5073884;28;20064;-62
2024/01/03 09:09:30;;;;;;;5.82;1.27;;;;;10.40;96702.00;;;;5073633;28;20422;-62
2024/01/03 09:11:57;;;;;;;5.15;1.50;;;;;10.40;96711.00;;;;5073038;28;20139;-62
2024/01/03 09:14:24;;;;;;;3.30;1.20;;;;;10.50;96707.00;;;;5072929;28;20511;-62
2024/01/03 09:16:51;;;;;;;4.72;1.33;;;;;10.40;96699.00;;;;5073355;28;20725;-62
2024/01/03 09:19:18;;;;;;;6.78;1.25;;;;;10.40;96718.00;;;;5072393;28;20386;-62
2024/01/03 09:21:45;;;;;;;5.30;1.88;;;;;10.50;96716.00;;;;5073276;28;20045;-64
2024/01/03 09:24:13;;;;;;;3.65;1.45;;;;;10.50;96702.00;;;;5072467;28;20131;-62
2024/01/03 09:26:39;;;;;;;5.47;1.35;;;;;10.50;96730.00;;;;5073284;28;20045;-62
2024/01/03 09:29:07;;;;;;;4.88;1.20;;;;;10.50;96721.00;;;;5072998;28;20505;-62
2024/01/03 09:31:40;;;;;;;3.75;1.10;;;;;10.50;96728.00;;;;5072843;28;20036;-63
2024/01/03 09:34:07;;;;;;;4.18;0.68;;;;;10.50;96724.00;;;;5072355;28;20076;-65
2024/01/03 09:36:34;;;;;;;4.55;1.40;;;;;10.60;96734.00;;;;5071652;28;20090;-63
2024/01/03 09:39:00;;;;;;;4.32;1.20;;;;;10.60;96756.00;;;;5072848;28;20090;-62
2024/01/03 09:41:29;;;;;;;4.28;1.13;;;;;10.70;96743.00;;;;5072892;28;20084;-64
2024/01/03 09:43:56;;;;;;;8.38;1.35;;;;;10.90;96730.00;;;;5071961;28;20045;-63
2024/01/03 09:46:23;;;;;;;1.65;0.77;;;;;11.00;96743.00;;;;5072886;28;20045;-62
2024/01/03 09:48:50;;;;;;;3.35;1.02;;;;;11.20;96743.00;;;;5072600;28;20046;-63
2024/01/03 09:51:19;;;;;;;2.30;0.77;;;;;11.30;96745.00;;;;5073020;28;20141;-62
2024/01/03 09:53:49;;;;;;;4.03;1.05;;;;;11.40;96754.00;;;;5072247;28;20052;-63
2024/01/03 09:56:16;;;;;;;3.17;0.90;;;;;11.40;96739.00;;;;5072772;28;20479;-63
2024/01/03 09:58:45;;;;;;;3.42;1.02;;;;;11.40;96754.00;;;;5072606;28;20123;-63
2024/01/03 10:01:12;;;;;;;2.75;0.90;;;;;11.50;96767.00;;;;5072765;28;20048;-63
2024/01/03 10:03:39;;;;;;;5.85;1.50;;;;;11.50;96780.00;;;;5072035;28;20110;-63
2024/01/03 10:06:12;;;;;;;5.75;1.00;;;;;11.60;96755.00;;;;5072566;28;20100;-62
2024/01/03 10:08:59;;;;;;;5.90;1.20;;;;;11.60;96762.00;;;;5071809;28;20498;-62
2024/01/03 10:11:27;;;;;;;5.28;1.35;;;;;11.50;96749.00;;;;5072435;28;20036;-63
2024/01/03 10:13:55;;;;;;;3.95;1.30;;;;;11.40;96765.00;;;;5071899;28;20040;-62
2024/01/03 10:16:28;;;;;;;4.20;1.23;;;;;11.40;96759.00;;;;5072400;28;20044;-62
2024/01/03 10:19:15;;;;;;;6.40;1.50;;;;;11.40;96776.00;;;;5072170;28;20044;-65
2024/01/03 10:21:48;;;;;;;6.72;1.58;;;;;11.40;96766.00;;;;5071063;28;20434;-65
2024/01/03 10:24:19;;;;;;;8.50;2.20;;;;;11.40;96765.00;;;;5071764;28;20048;-64
2024/01/03 10:26:46;;;;;;;6.18;1.27;;;;;11.50;96774.00;;;;5072377;28;20428;-63
2024/01/03 10:29:16;;;;;;;8.70;1.85;;;;;11.50;96769.00;;;;5072052;28;20071;-62
2024/01/03 10:31:44;;;;;;;8.27;1.80;;;;;11.60;96768.00;;;;5072086;28;20083;-63
2024/01/03 10:34:15;;;;;;;40.28;20.92;;;;;11.60;96773.00;;;;5071850;28;20046;-64
2024/01/03 10:36:43;;;;;;;48.78;23.88;;;;;11.60;96769.00;;;;5070913;28;20567;-62
2024/01/03 10:39:14;;;;;;;8.15;3.30;;;;;11.80;96754.00;;;;5072008;28;20047;-63
2024/01/03 10:41:43;;;;;;;5.13;2.28;;;;;11.90;96763.00;;;;5072203;28;20054;-62
2024/01/03 10:44:12;;;;;;;4.60;1.83;;;;;12.00;96757.00;;;;5071313;28;20051;-62
2024/01/03 10:46:44;;;;;;;6.68;2.05;;;;;12.10;96763.00;;;;5072163;28;20043;-62
2024/01/03 10:49:11;;;;;;;8.48;1.50;;;;;12.20;96751.00;;;;5072037;28;20044;-63
2024/01/03 10:51:40;;;;;;;5.00;1.95;;;;;12.20;96757.00;;;;5071861;28;20041;-63
2024/01/03 10:54:10;;;;;;;9.15;1.80;;;;;12.10;96756.00;;;;5071306;28;20045;-63
2024/01/03 10:56:37;;;;;;;11.77;4.70;;;;;12.00;96762.00;;;;5071835;28;20032;-63
2024/01/03 10:59:05;;;;;;;49.03;28.25;;;;;11.90;96772.00;;;;5071766;28;20051;-64
2024/01/03 11:01:44;;;;;;;12.68;3.60;;;;;11.80;96777.00;;;;5071829;28;20079;-64
2024/01/03 11:04:32;;;;;;;10.80;2.75;;;;;11.60;96781.00;;;;5070046;28;20098;-62
2024/01/03 11:07:12;;;;;;;7.57;2.35;;;;;11.40;96779.00;;;;5071758;28;20038;-63
2024/01/03 11:09:39;;;;;;;6.97;2.00;;;;;11.30;96777.00;;;;5071821;28;20390;-65
2024/01/03 11:12:08;;;;;;;6.07;1.45;;;;;11.20;96782.00;;;;5071725;28;20127;-64
2024/01/03 11:14:35;;;;;;;8.98;1.60;;;;;11.10;96760.00;;;;5071261;28;20059;-65
2024/01/03 11:17:02;;;;;;;6.20;1.65;;;;;11.10;96768.00;;;;5071701;28;20048;-62
2024/01/03 11:19:30;;;;;;;6.00;1.90;;;;;11.10;96777.00;;;;5072240;28;20040;-63
2024/01/03 11:22:05;;;;;;;6.22;1.90;;;;;11.20;96770.00;;;;5075733;28;20555;-63
2024/01/03 11:24:31;;;;;;;4.22;1.70;;;;;11.20;96761.00;;;;5074846;28;20055;-65
2024/01/03 11:27:03;;;;;;;12.57;2.53;;;;;11.30;96776.00;;;;5074121;28;20037;-65
2024/01/03 11:29:41;;;;;;;7.15;2.20;;;;;11.30;96775.00;;;;5075445;28;20124;-66
2024/01/03 11:32:29;;;;;;;8.82;2.35;;;;;11.50;96774.00;;;;5075472;28;20105;-65
2024/01/03 11:34:58;;;;;;;5.38;1.67;;;;;11.70;96782.00;;;;5074674;28;20116;-64
2024/01/03 11:37:25;;;;;;;7.68;1.38;;;;;11.80;96763.00;;;;5074066;28;20086;-66
2024/01/03 11:39:54;;;;;;;8.70;1.63;;;;;11.90;96768.00;;;;5075186;28;20490;-65
2024/01/03 11:42:32;;;;;;;9.45;1.73;;;;;12.10;96761.00;;;;5075095;28;20433;-65
2024/01/03 11:45:13;;;;;;;4.07;1.85;;;;;12.10;96759.00;;;;5074517;28;20045;-65
2024/01/03 11:47:45;;;;;;;6.70;1.40;;;;;12.10;96751.00;;;;5075143;28;20044;-64
2024/01/03 11:50:15;;;;;;;5.00;1.65;;;;;12.10;96755.00;;;;5075098;28;20053;-65
2024/01/03 11:52:45;;;;;;;7.97;1.30;;;;;12.10;96749.00;;;;5074937;28;20497;-65
2024/01/03 11:55:16;;;;;;;6.35;1.73;;;;;12.00;96749.00;;;;5074456;28;20102;-66
2024/01/03 11:57:44;;;;;;;6.35;1.88;;;;;12.00;96742.00;;;;5075050;28;20570;-64
2024/01/03 12:00:16;;;;;;;7.65;1.77;;;;;11.90;96757.00;;;;5073846;28;20097;-65
2024/01/03 12:02:53;;;;;;;2.92;1.13;;;;;11.80;96744.00;;;;5075045;28;20119;-63
2024/01/03 12:05:21;;;;;;;4.20;1.40;;;;;11.60;96753.00;;;;5074155;28;20558;-62
2024/01/03 12:07:49;;;;;;;7.15;1.73;;;;;11.40;96740.00;;;;5075141;28;20485;-61
2024/01/03 12:10:19;;;;;;;3.72;1.27;;;;;11.30;96736.00;;;;5074451;28;20056;-62
2024/01/03 12:12:47;;;;;;;5.00;1.77;;;;;11.30;96745.00;;;;5076779;28;20050;-62
2024/01/03 12:15:26;;;;;;;6.68;1.70;;;;;11.20;96742.00;;;;5076957;28;20100;-63
2024/01/03 12:18:12;;;;;;;9.52;2.05;;;;;11.10;96731.00;;;;5079590;28;20036;-62
2024/01/03 12:20:39;;;;;;;8.45;1.88;;;;;11.10;96740.00;;;;5081062;28;20044;-62
2024/01/03 12:23:07;;;;;;;8.82;2.47;;;;;11.00;96733.00;;;;5094628;28;20048;-65